Terminal Aerodrome Forecast
Issued by NWS

Home | Current Version | Previous Version | Text Only | Print | Product List | Glossary On
Versions: 1 2 3 4 5 6 7 8 9 10 11 12 13 14 15
503
FTUS43 KLSX 232320
TAFCPS
TAF
KCPS 232320Z 2400/2424 01010G17KT P6SM SKC
     FM240100 VRB04KT P6SM SKC
     FM241700 14005KT P6SM FEW250=

USA.gov is the U.S. government's official web portal to all federal, state and local government web resources and services.